createdAt,value
2019-01-25T00:00:36.686Z,-1.69
2019-01-25T00:01:37.262Z,-1.77
2019-01-25T00:02:37.846Z,-1.67
2019-01-25T00:03:38.431Z,-1.66
2019-01-25T00:04:39.006Z,-1.70
2019-01-25T00:05:39.587Z,-1.74
2019-01-25T00:06:40.278Z,-1.72
2019-01-25T00:07:40.868Z,-1.64
2019-01-25T00:08:41.443Z,-1.57
2019-01-25T00:09:42.025Z,-1.56
2019-01-25T00:10:42.607Z,-1.56
2019-01-25T00:11:44.195Z,-1.54
2019-01-25T00:12:44.769Z,-1.54
2019-01-25T00:13:45.351Z,-1.57
2019-01-25T00:14:45.930Z,-1.54
2019-01-25T00:15:46.514Z,-1.56
2019-01-25T00:16:47.091Z,-1.56
2019-01-25T00:17:49.688Z,-1.60
2019-01-25T00:18:50.491Z,-1.59
2019-01-25T00:19:51.072Z,-1.70
2019-01-25T00:20:51.646Z,-1.69
2019-01-25T00:21:52.222Z,-1.72
2019-01-25T00:22:52.801Z,-1.74
2019-01-25T00:23:53.408Z,-1.67
2019-01-25T00:24:53.996Z,-1.67
2019-01-25T00:25:54.547Z,-1.72
2019-01-25T00:26:55.119Z,-1.60
2019-01-25T00:27:55.702Z,-1.69
2019-01-25T00:28:56.281Z,-1.60
2019-01-25T00:29:56.869Z,-1.57
2019-01-25T00:30:57.450Z,-1.53
2019-01-25T00:31:58.054Z,-1.62
2019-01-25T00:32:58.606Z,-1.56
2019-01-25T00:33:59.188Z,-1.53
2019-01-25T00:34:59.768Z,-1.56
2019-01-25T00:36:00.349Z,-1.57
2019-01-25T00:37:00.935Z,-1.53
2019-01-25T00:38:01.510Z,-1.59
2019-01-25T00:39:02.089Z,-1.66
2019-01-25T00:40:06.416Z,-1.74
2019-01-25T00:41:03.251Z,-1.75
2019-01-25T00:42:03.841Z,-1.80
2019-01-25T00:43:04.414Z,-1.82
2019-01-25T00:44:04.997Z,-1.82
2019-01-25T00:45:05.578Z,-1.78
2019-01-25T00:46:06.160Z,-1.78
2019-01-25T00:47:06.739Z,-1.75
2019-01-25T00:48:07.331Z,-1.74
2019-01-25T00:49:07.917Z,-1.69
2019-01-25T00:50:08.491Z,-1.74
2019-01-25T00:51:09.067Z,-1.67
2019-01-25T00:52:09.651Z,-1.69
2019-01-25T00:53:10.225Z,-1.69
2019-01-25T00:54:10.817Z,-1.72
2019-01-25T00:55:11.380Z,-1.64
2019-01-25T00:56:12.971Z,-1.60
2019-01-25T00:57:13.549Z,-1.59
2019-01-25T00:58:14.148Z,-1.54
2019-01-25T00:59:14.706Z,-1.51
2019-01-25T01:00:15.311Z,-1.53
2019-01-25T01:01:15.887Z,-1.59
2019-01-25T01:02:16.466Z,-1.53
2019-01-25T01:03:17.046Z,-1.51
2019-01-25T01:04:17.629Z,-1.51
2019-01-25T01:05:18.202Z,-1.49
2019-01-25T01:06:18.785Z,-1.54
2019-01-25T01:07:19.363Z,-1.51
2019-01-25T01:08:19.954Z,-1.53
2019-01-25T01:09:20.530Z,-1.56
2019-01-25T01:10:21.121Z,-1.53
2019-01-25T01:11:21.692Z,-1.46
2019-01-25T01:12:22.284Z,-1.56
2019-01-25T01:13:22.889Z,-1.43
2019-01-25T01:14:23.444Z,-1.43
2019-01-25T01:15:24.022Z,-1.42
2019-01-25T01:16:24.601Z,-1.51
2019-01-25T01:17:25.180Z,-1.38
2019-01-25T01:18:25.764Z,-1.42
2019-01-25T01:19:26.347Z,-1.41
2019-01-25T01:20:26.927Z,-1.38
2019-01-25T01:21:27.502Z,-1.42
2019-01-25T01:22:28.090Z,-1.36
2019-01-25T01:23:28.668Z,-1.39
2019-01-25T01:24:29.252Z,-1.41
2019-01-25T01:25:29.835Z,-1.41
2019-01-25T01:26:30.413Z,-1.31
2019-01-25T01:27:31.013Z,-1.42
2019-01-25T01:28:31.593Z,-1.39
2019-01-25T01:29:32.177Z,-1.39
2019-01-25T01:30:32.756Z,-1.39
2019-01-25T01:31:33.340Z,-1.33
2019-01-25T01:32:33.922Z,-1.36
2019-01-25T01:33:34.497Z,-1.42
2019-01-25T01:34:36.081Z,-1.39
2019-01-25T01:35:36.661Z,-1.36
2019-01-25T01:36:38.242Z,-1.36
2019-01-25T01:37:38.908Z,-1.38
2019-01-25T01:38:39.486Z,-1.31
2019-01-25T01:39:40.070Z,-1.27
2019-01-25T01:40:41.656Z,-1.33
2019-01-25T01:41:42.233Z,-1.33
2019-01-25T01:42:43.818Z,-1.28
2019-01-25T01:43:44.395Z,-1.41
2019-01-25T01:44:44.983Z,-1.36
2019-01-25T01:45:45.567Z,-1.31
2019-01-25T01:46:46.150Z,-1.35
2019-01-25T01:47:46.729Z,-1.36
2019-01-25T01:48:47.313Z,-1.35
2019-01-25T01:49:47.896Z,-1.35
2019-01-25T01:50:48.482Z,-1.38
2019-01-25T01:51:49.056Z,-1.33
2019-01-25T01:52:49.643Z,-1.31
2019-01-25T01:53:50.214Z,-1.35
2019-01-25T01:54:50.801Z,-1.33
2019-01-25T01:55:51.376Z,-1.28
2019-01-25T01:56:51.958Z,-1.28
2019-01-25T01:57:52.542Z,-1.33
2019-01-25T01:58:53.119Z,-1.33
2019-01-25T01:59:53.693Z,-1.33
2019-01-25T02:00:54.271Z,-1.33
2019-01-25T02:01:54.854Z,-1.36
2019-01-25T02:02:55.435Z,-1.38
2019-01-25T02:03:56.015Z,-1.31
2019-01-25T02:04:56.599Z,-1.30
2019-01-25T02:05:57.173Z,-1.31
2019-01-25T02:06:57.757Z,-1.24
2019-01-25T02:07:58.338Z,-1.28
2019-01-25T02:08:58.922Z,-1.24
2019-01-25T02:09:59.492Z,-1.28
2019-01-25T02:11:00.075Z,-1.25
2019-01-25T02:12:00.660Z,-1.25
2019-01-25T02:13:01.243Z,-1.24
2019-01-25T02:14:01.823Z,-1.21
2019-01-25T02:15:02.404Z,-1.23
2019-01-25T02:16:02.988Z,-1.21
2019-01-25T02:17:03.570Z,-1.21
2019-01-25T02:18:04.156Z,-1.18
2019-01-25T02:19:04.739Z,-1.33
2019-01-25T02:20:05.314Z,-1.28
2019-01-25T02:21:05.906Z,-1.18
2019-01-25T02:22:06.480Z,-1.36
2019-01-25T02:23:07.072Z,-1.28
2019-01-25T02:24:07.652Z,-1.36
2019-01-25T02:25:08.242Z,-1.24
2019-01-25T02:26:08.821Z,-1.33
2019-01-25T02:27:09.407Z,-1.20
2019-01-25T02:28:09.993Z,-1.25
2019-01-25T02:29:10.568Z,-1.28
2019-01-25T02:30:11.152Z,-1.27
2019-01-25T02:31:11.733Z,-1.28
2019-01-25T02:32:12.311Z,-1.25
2019-01-25T02:33:12.892Z,-1.21
2019-01-25T02:34:13.467Z,-1.21
2019-01-25T02:35:14.052Z,-1.24
2019-01-25T02:36:14.639Z,-1.25
2019-01-25T02:37:15.210Z,-1.30
2019-01-25T02:38:15.793Z,-1.27
2019-01-25T02:39:16.407Z,-1.33
2019-01-25T02:40:16.952Z,-1.31
2019-01-25T02:41:17.536Z,-1.35
2019-01-25T02:42:18.112Z,-1.33
2019-01-25T02:43:18.695Z,-1.28
2019-01-25T02:44:19.272Z,-1.30
2019-01-25T02:45:19.855Z,-1.25
2019-01-25T02:46:20.429Z,-1.25
2019-01-25T02:47:21.014Z,-1.21
2019-01-25T02:48:21.591Z,-1.28
2019-01-25T02:49:22.184Z,-1.28
2019-01-25T02:50:22.751Z,-1.35
2019-01-25T02:51:23.335Z,-1.36
2019-01-25T02:52:23.913Z,-1.33
2019-01-25T02:53:24.512Z,-1.35
2019-01-25T02:54:25.090Z,-1.38
2019-01-25T02:55:33.500Z,-1.25
2019-01-25T02:56:34.082Z,-1.36
2019-01-25T02:57:34.655Z,-1.25
2019-01-25T02:58:35.244Z,-1.33
2019-01-25T02:59:35.842Z,-1.30
2019-01-25T03:00:36.388Z,-1.33
2019-01-25T03:01:37.258Z,-1.35
2019-01-25T03:02:37.831Z,-1.24
2019-01-25T03:03:38.406Z,-1.35
2019-01-25T03:04:38.987Z,-1.33
2019-01-25T03:05:39.569Z,-1.23
2019-01-25T03:06:40.142Z,-1.27
2019-01-25T03:07:40.722Z,-1.28
2019-01-25T03:08:41.301Z,-1.28
2019-01-25T03:09:41.887Z,-1.18
2019-01-25T03:10:47.185Z,-1.27
2019-01-25T03:11:43.031Z,-1.18
2019-01-25T03:12:43.615Z,-1.25
2019-01-25T03:13:44.196Z,-1.21
2019-01-25T03:14:44.767Z,-1.24
2019-01-25T03:15:45.347Z,-1.25
2019-01-25T03:16:45.936Z,-1.18
2019-01-25T03:17:46.527Z,-1.24
2019-01-25T03:18:47.099Z,-1.30
2019-01-25T03:19:47.682Z,-1.17
2019-01-25T03:20:48.264Z,-1.20
2019-01-25T03:21:48.857Z,-1.17
2019-01-25T03:22:49.433Z,-1.13
2019-01-25T03:23:50.009Z,-1.17
2019-01-25T03:24:50.585Z,-1.21
2019-01-25T03:25:51.177Z,-1.18
2019-01-25T03:26:51.755Z,-1.20
2019-01-25T03:27:52.334Z,-1.13
2019-01-25T03:28:52.912Z,-1.13
2019-01-25T03:29:53.508Z,-1.09
2019-01-25T03:30:54.089Z,-1.09
2019-01-25T03:31:54.656Z,-1.17
2019-01-25T03:32:55.254Z,-1.09
2019-01-25T03:33:55.808Z,-1.12
2019-01-25T03:34:56.390Z,-1.18
2019-01-25T03:35:56.998Z,-1.21
2019-01-25T03:36:57.554Z,-1.13
2019-01-25T03:37:58.137Z,-1.20
2019-01-25T03:38:58.708Z,-1.15
2019-01-25T03:39:59.292Z,-1.15
2019-01-25T03:40:59.877Z,-1.24
2019-01-25T03:42:00.459Z,-1.24
2019-01-25T03:43:01.039Z,-1.18
2019-01-25T03:44:01.616Z,-1.33
2019-01-25T03:45:02.194Z,-1.31
2019-01-25T03:46:02.772Z,-1.39
2019-01-25T03:47:03.353Z,-1.36
2019-01-25T03:48:03.937Z,-1.35
2019-01-25T03:49:04.512Z,-1.36
2019-01-25T03:50:05.093Z,-1.39
2019-01-25T03:51:05.673Z,-1.36
2019-01-25T03:52:06.264Z,-1.36
2019-01-25T03:53:06.838Z,-1.31
2019-01-25T03:54:07.425Z,-1.31
2019-01-25T03:55:08.004Z,-1.38
2019-01-25T03:56:08.591Z,-1.42
2019-01-25T03:57:09.181Z,-1.31
2019-01-25T03:58:09.781Z,-1.36
2019-01-25T03:59:10.362Z,-1.41
2019-01-25T04:00:10.944Z,-1.49
2019-01-25T04:01:11.528Z,-1.49
2019-01-25T04:02:12.108Z,-1.56
2019-01-25T04:03:12.684Z,-1.57
2019-01-25T04:04:13.263Z,-1.69
2019-01-25T04:05:13.844Z,-1.70
2019-01-25T04:06:14.430Z,-1.75
2019-01-25T04:07:14.999Z,-1.66
2019-01-25T04:08:15.574Z,-1.81
2019-01-25T04:09:16.157Z,-1.77
2019-01-25T04:10:16.746Z,-1.84
2019-01-25T04:11:17.330Z,-1.80
2019-01-25T04:12:17.910Z,-1.66
2019-01-25T04:13:18.484Z,-1.66
2019-01-25T04:14:19.067Z,-1.72
2019-01-25T04:15:19.653Z,-1.70
2019-01-25T04:16:20.231Z,-1.70
2019-01-25T04:17:20.805Z,-1.63
2019-01-25T04:18:21.393Z,-1.56
2019-01-25T04:19:21.964Z,-1.56
2019-01-25T04:20:22.544Z,-1.54
2019-01-25T04:21:23.126Z,-1.57
2019-01-25T04:22:25.715Z,-1.48
2019-01-25T04:23:26.297Z,-1.57
2019-01-25T04:24:26.885Z,-1.54
2019-01-25T04:25:27.454Z,-1.48
2019-01-25T04:26:28.030Z,-1.43
2019-01-25T04:27:28.613Z,-1.46
2019-01-25T04:28:29.187Z,-1.45
2019-01-25T04:29:29.774Z,-1.51
2019-01-25T04:30:30.355Z,-1.56
2019-01-25T04:31:30.934Z,-1.45
2019-01-25T04:32:31.508Z,-1.42
2019-01-25T04:33:32.095Z,-1.46
2019-01-25T04:34:32.674Z,-1.46
2019-01-25T04:35:33.253Z,-1.51
2019-01-25T04:36:33.834Z,-1.45
2019-01-25T04:37:34.428Z,-1.49
2019-01-25T04:38:35.000Z,-1.53
2019-01-25T04:39:35.584Z,-1.54
2019-01-25T04:40:36.157Z,-1.56
2019-01-25T04:41:36.750Z,-1.51
2019-01-25T04:42:37.336Z,-1.56
2019-01-25T04:43:37.923Z,-1.56
2019-01-25T04:44:38.490Z,-1.49
2019-01-25T04:45:39.070Z,-1.60
2019-01-25T04:46:39.653Z,-1.56
2019-01-25T04:47:40.235Z,-1.63
2019-01-25T04:48:40.821Z,-1.67
2019-01-25T04:49:41.394Z,-1.70
2019-01-25T04:50:41.970Z,-1.66
2019-01-25T04:51:43.558Z,-1.66
2019-01-25T04:52:44.132Z,-1.70
2019-01-25T04:53:44.718Z,-1.74
2019-01-25T04:54:45.299Z,-1.74
2019-01-25T04:55:45.882Z,-1.78
2019-01-25T04:56:46.453Z,-1.81
2019-01-25T04:57:47.035Z,-1.78
2019-01-25T04:58:47.626Z,-1.81
2019-01-25T04:59:48.306Z,-1.85
2019-01-25T05:00:48.831Z,-1.98
2019-01-25T05:01:49.416Z,-1.95
2019-01-25T05:02:49.999Z,-2.00
2019-01-25T05:03:50.586Z,-2.05
2019-01-25T05:04:51.160Z,-2.03
2019-01-25T05:05:51.753Z,-2.10
2019-01-25T05:06:52.360Z,-2.13
2019-01-25T05:07:52.907Z,-2.13
2019-01-25T05:08:53.483Z,-2.18
2019-01-25T05:09:54.076Z,-2.18
2019-01-25T05:10:54.643Z,-2.18
2019-01-25T05:11:55.221Z,-2.23
2019-01-25T05:12:55.813Z,-2.23
2019-01-25T05:13:56.402Z,-2.20
2019-01-25T05:14:56.971Z,-2.20
2019-01-25T05:15:57.559Z,-2.18
2019-01-25T05:16:58.136Z,-2.08
2019-01-25T05:17:58.720Z,-2.08
2019-01-25T05:18:59.294Z,-2.13
2019-01-25T05:19:59.874Z,-2.06
2019-01-25T05:21:00.460Z,-2.11
2019-01-25T05:22:01.042Z,-2.21
2019-01-25T05:23:01.631Z,-2.18
2019-01-25T05:24:02.200Z,-2.13
2019-01-25T05:25:02.776Z,-2.10
2019-01-25T05:26:03.363Z,-2.13
2019-01-25T05:27:03.936Z,-2.11
2019-01-25T05:28:04.520Z,-2.08
2019-01-25T05:29:05.101Z,-2.03
2019-01-25T05:30:05.674Z,-2.13
2019-01-25T05:31:06.252Z,-2.08
2019-01-25T05:32:06.835Z,-2.03
2019-01-25T05:33:07.421Z,-2.08
2019-01-25T05:34:07.999Z,-2.10
2019-01-25T05:35:08.580Z,-2.13
2019-01-25T05:36:09.157Z,-2.08
2019-01-25T05:37:09.738Z,-2.08
2019-01-25T05:38:10.332Z,-2.08
2019-01-25T05:39:10.895Z,-2.10
2019-01-25T05:40:11.479Z,-2.11
2019-01-25T05:41:12.054Z,-2.05
2019-01-25T05:42:12.753Z,-2.08
2019-01-25T05:43:13.333Z,-2.17
2019-01-25T05:44:13.919Z,-2.08
2019-01-25T05:45:14.499Z,-2.16
2019-01-25T05:46:15.137Z,-1.99
2019-01-25T05:47:15.660Z,-2.00
2019-01-25T05:48:16.279Z,-2.02
2019-01-25T05:49:16.819Z,-1.99
2019-01-25T05:50:17.405Z,-2.02
2019-01-25T05:51:17.991Z,-1.96
2019-01-25T05:52:18.577Z,-1.99
2019-01-25T05:53:19.159Z,-1.93
2019-01-25T05:54:19.728Z,-1.92
2019-01-25T05:55:20.306Z,-1.96
2019-01-25T05:56:20.895Z,-1.99
2019-01-25T05:57:21.482Z,-1.99
2019-01-25T05:58:24.075Z,-1.98
2019-01-25T05:59:24.642Z,-1.99
2019-01-25T06:00:25.212Z,-2.05
2019-01-25T06:01:26.458Z,-1.99
2019-01-25T06:02:26.369Z,-1.96
2019-01-25T06:03:26.952Z,-2.00
2019-01-25T06:04:27.535Z,-2.00
2019-01-25T06:05:28.112Z,-1.99
2019-01-25T06:06:28.702Z,-2.05
2019-01-25T06:07:30.282Z,-1.95
2019-01-25T06:08:30.866Z,-1.98
2019-01-25T06:09:31.445Z,-1.96
2019-01-25T06:10:32.028Z,-1.99
2019-01-25T06:11:35.547Z,-1.99
2019-01-25T06:12:33.185Z,-2.02
2019-01-25T06:13:34.776Z,-2.03
2019-01-25T06:14:35.348Z,-2.03
2019-01-25T06:15:35.935Z,-2.02
2019-01-25T06:16:36.508Z,-2.02
2019-01-25T06:17:37.106Z,-2.08
2019-01-25T06:18:37.692Z,-1.96
2019-01-25T06:19:38.277Z,-2.10
2019-01-25T06:20:38.852Z,-2.02
2019-01-25T06:21:39.435Z,-2.03
2019-01-25T06:22:40.008Z,-2.00
2019-01-25T06:23:40.610Z,-1.96
2019-01-25T06:24:41.177Z,-2.02
2019-01-25T06:25:41.780Z,-2.06
2019-01-25T06:26:42.341Z,-2.00
2019-01-25T06:27:42.924Z,-1.96
2019-01-25T06:28:43.510Z,-1.96
2019-01-25T06:29:44.086Z,-1.92
2019-01-25T06:30:44.721Z,-1.98
2019-01-25T06:31:45.294Z,-1.95
2019-01-25T06:32:45.959Z,-2.00
2019-01-25T06:33:46.545Z,-1.99
2019-01-25T06:34:48.232Z,-1.99
2019-01-25T06:35:48.812Z,-1.99
2019-01-25T06:36:49.394Z,-1.93
2019-01-25T06:37:49.976Z,-1.96
2019-01-25T06:38:50.549Z,-1.99
2019-01-25T06:39:51.138Z,-1.92
2019-01-25T06:40:51.716Z,-1.96
2019-01-25T06:41:52.308Z,-1.98
2019-01-25T06:42:52.876Z,-1.93
2019-01-25T06:43:53.487Z,-2.03
2019-01-25T06:44:54.125Z,-1.93
2019-01-25T06:45:54.706Z,-1.95
2019-01-25T06:46:55.281Z,-2.02
2019-01-25T06:47:55.859Z,-1.90
2019-01-25T06:48:56.435Z,-1.95
2019-01-25T06:49:57.012Z,-1.96
2019-01-25T06:50:57.587Z,-1.98
2019-01-25T06:51:58.164Z,-1.96
2019-01-25T06:52:58.748Z,-1.99
2019-01-25T06:53:59.409Z,-2.05
2019-01-25T06:54:59.993Z,-2.00
2019-01-25T06:56:00.668Z,-2.02
2019-01-25T06:57:01.246Z,-2.00
2019-01-25T06:58:01.900Z,-1.95
2019-01-25T06:59:02.477Z,-2.02
2019-01-25T07:00:03.061Z,-2.03
2019-01-25T07:01:03.643Z,-1.98
2019-01-25T07:02:04.227Z,-1.95
2019-01-25T07:03:04.816Z,-1.96
2019-01-25T07:04:05.393Z,-1.98
2019-01-25T07:05:05.970Z,-1.88
2019-01-25T07:06:06.553Z,-1.85
2019-01-25T07:07:07.138Z,-1.99
2019-01-25T07:08:07.734Z,-1.90
2019-01-25T07:09:08.319Z,-1.82
2019-01-25T07:10:08.900Z,-1.84
2019-01-25T07:11:09.480Z,-1.87
2019-01-25T07:12:10.091Z,-1.92
2019-01-25T07:13:10.681Z,-1.93
2019-01-25T07:14:11.254Z,-1.98
2019-01-25T07:15:11.831Z,-1.87
2019-01-25T07:16:12.403Z,-2.02
2019-01-25T07:17:12.982Z,-1.98
2019-01-25T07:18:13.568Z,-1.95
2019-01-25T07:19:14.140Z,-2.05
2019-01-25T07:20:14.718Z,-1.98
2019-01-25T07:21:15.301Z,-1.87
2019-01-25T07:22:15.984Z,-1.81
2019-01-25T07:23:16.566Z,-1.84
2019-01-25T07:24:17.146Z,-1.87
2019-01-25T07:25:17.721Z,-1.77
2019-01-25T07:26:18.300Z,-1.78
2019-01-25T07:27:18.918Z,-1.84
2019-01-25T07:28:19.456Z,-1.75
2019-01-25T07:29:20.048Z,-1.78
2019-01-25T07:30:20.645Z,-1.75
2019-01-25T07:31:21.305Z,-1.77
2019-01-25T07:32:21.884Z,-1.72
2019-01-25T07:33:22.535Z,-1.74
2019-01-25T07:34:23.068Z,-1.75
2019-01-25T07:35:23.687Z,-1.72
2019-01-25T07:36:24.253Z,-1.77
2019-01-25T07:37:24.885Z,-1.64
2019-01-25T07:38:25.441Z,-1.67
2019-01-25T07:39:26.170Z,-1.72
2019-01-25T07:40:26.605Z,-1.66
2019-01-25T07:41:27.144Z,-1.66
2019-01-25T07:42:27.760Z,-1.72
2019-01-25T07:43:28.305Z,-1.72
2019-01-25T07:44:28.977Z,-1.67
2019-01-25T07:45:29.562Z,-1.72
2019-01-25T07:46:30.236Z,-1.67
2019-01-25T07:47:32.755Z,-1.75
2019-01-25T07:48:31.400Z,-1.67
2019-01-25T07:49:31.977Z,-1.70
2019-01-25T07:50:32.611Z,-1.60
2019-01-25T07:51:33.213Z,-1.66
2019-01-25T07:52:33.767Z,-1.56
2019-01-25T07:53:36.475Z,-1.57
2019-01-25T07:54:36.996Z,-1.53
2019-01-25T07:55:37.669Z,-1.53
2019-01-25T07:56:38.248Z,-1.59
2019-01-25T07:57:38.859Z,-1.54
2019-01-25T07:58:39.425Z,-1.54
2019-01-25T07:59:40.005Z,-1.56
2019-01-25T08:00:40.754Z,-1.53
2019-01-25T08:01:41.142Z,-1.54
2019-01-25T08:02:41.723Z,-1.43
2019-01-25T08:03:42.294Z,-1.46
2019-01-25T08:04:42.873Z,-1.53
2019-01-25T08:05:43.592Z,-1.43
2019-01-25T08:06:44.138Z,-1.45
2019-01-25T08:07:44.836Z,-1.39
2019-01-25T08:08:45.406Z,-1.45
2019-01-25T08:09:45.972Z,-1.38
2019-01-25T08:10:46.562Z,-1.33
2019-01-25T08:11:47.155Z,-1.31
2019-01-25T08:12:47.803Z,-1.39
2019-01-25T08:13:48.313Z,-1.36
2019-01-25T08:14:48.890Z,-1.33
2019-01-25T08:15:50.980Z,-1.35
2019-01-25T08:16:51.645Z,-1.31
2019-01-25T08:17:52.223Z,-1.27
2019-01-25T08:18:52.792Z,-1.25
2019-01-25T08:19:53.373Z,-1.24
2019-01-25T08:20:53.976Z,-1.25
2019-01-25T08:21:56.589Z,-1.18
2019-01-25T08:22:57.155Z,-1.24
2019-01-25T08:23:57.738Z,-1.17
2019-01-25T08:25:00.438Z,-1.15
2019-01-25T08:26:00.919Z,-1.09
2019-01-25T08:27:01.608Z,-1.07
2019-01-25T08:28:02.192Z,-1.15
2019-01-25T08:29:04.023Z,-1.13
2019-01-25T08:30:04.438Z,-1.15
2019-01-25T08:31:05.017Z,-1.20
2019-01-25T08:32:12.577Z,-1.09
2019-01-25T08:33:13.157Z,-1.05
2019-01-25T08:34:13.842Z,-1.10
2019-01-25T08:35:14.401Z,-1.09
2019-01-25T08:36:15.086Z,-1.06
2019-01-25T08:37:15.748Z,-1.10
2019-01-25T08:38:16.217Z,-1.07
2019-01-25T08:39:16.851Z,-1.05
2019-01-25T08:40:17.412Z,-1.06
2019-01-25T08:41:17.952Z,-1.03
2019-01-25T08:42:18.567Z,-1.06
2019-01-25T08:43:19.124Z,-1.10
2019-01-25T08:44:19.745Z,-1.09
2019-01-25T08:45:20.293Z,-1.24
2019-01-25T08:46:20.969Z,-1.23
2019-01-25T08:47:21.538Z,-1.24
2019-01-25T08:48:22.121Z,-1.18
2019-01-25T08:49:22.709Z,-1.23
2019-01-25T08:50:23.307Z,-1.24
2019-01-25T08:51:23.848Z,-1.18
2019-01-25T08:52:24.424Z,-1.13
2019-01-25T08:53:25.045Z,-1.13
2019-01-25T08:54:25.762Z,-1.24
2019-01-25T08:55:26.168Z,-1.24
2019-01-25T08:56:26.747Z,-1.27
2019-01-25T08:57:27.418Z,-1.24
2019-01-25T08:58:28.000Z,-1.24
2019-01-25T08:59:28.578Z,-1.18
2019-01-25T09:00:29.159Z,-1.25
2019-01-25T09:01:29.755Z,-1.25
2019-01-25T09:02:30.325Z,-1.23
2019-01-25T09:03:30.903Z,-1.25
2019-01-25T09:04:31.563Z,-1.21
2019-01-25T09:05:32.139Z,-1.21
2019-01-25T09:06:32.802Z,-1.17
2019-01-25T09:07:33.389Z,-1.09
2019-01-25T09:08:34.048Z,-1.09
2019-01-25T09:09:34.631Z,-1.17
2019-01-25T09:10:35.209Z,-1.09
2019-01-25T09:11:35.791Z,-1.10
2019-01-25T09:12:36.367Z,-1.10
2019-01-25T09:13:36.941Z,-1.07
2019-01-25T09:14:37.612Z,-1.12
2019-01-25T09:15:38.174Z,-1.15
2019-01-25T09:16:38.757Z,-1.09
2019-01-25T09:17:39.354Z,-1.00
2019-01-25T09:18:39.935Z,-1.07
2019-01-25T09:19:40.598Z,-0.99
2019-01-25T09:20:41.173Z,-1.00
2019-01-25T09:21:41.854Z,-1.00
2019-01-25T09:22:42.413Z,-0.95
2019-01-25T09:23:43.073Z,-0.86
2019-01-25T09:24:43.693Z,-0.89
2019-01-25T09:25:44.319Z,-0.99
2019-01-25T09:26:44.909Z,-1.00
2019-01-25T09:27:46.593Z,-0.91
2019-01-25T09:28:47.173Z,-1.07
2019-01-25T09:29:47.834Z,-1.07
2019-01-25T09:30:48.430Z,-1.06
2019-01-25T09:31:49.039Z,-0.99
2019-01-25T09:32:49.614Z,-0.92
2019-01-25T09:33:50.282Z,-0.94
2019-01-25T09:34:50.863Z,-0.94
2019-01-25T09:35:51.527Z,-0.91
2019-01-25T09:36:52.105Z,-0.84
2019-01-25T09:37:52.766Z,-0.86
2019-01-25T09:38:53.348Z,-0.81
2019-01-25T09:39:55.034Z,-0.72
2019-01-25T09:40:55.617Z,-0.73
2019-01-25T09:41:56.274Z,-0.69
2019-01-25T09:42:56.858Z,-0.69
2019-01-25T09:43:57.531Z,-0.65
2019-01-25T09:44:58.096Z,-0.69
2019-01-25T09:45:59.788Z,-0.51
2019-01-25T09:47:00.372Z,-0.52
2019-01-25T09:48:01.030Z,-0.54
2019-01-25T09:49:01.616Z,-0.50
2019-01-25T09:50:02.272Z,-0.59
2019-01-25T09:51:02.862Z,-0.54
2019-01-25T09:52:04.544Z,-0.54
2019-01-25T09:53:05.123Z,-0.51
2019-01-25T09:54:06.807Z,-0.48
2019-01-25T09:55:07.390Z,-0.62
2019-01-25T09:56:07.980Z,-0.54
2019-01-25T09:57:08.561Z,-0.50
2019-01-25T09:58:09.144Z,-0.50
2019-01-25T09:59:09.718Z,-0.48
2019-01-25T10:00:10.299Z,-0.45
2019-01-25T10:01:10.881Z,-0.55
2019-01-25T10:02:11.456Z,-0.51
2019-01-25T10:03:12.037Z,-0.42
2019-01-25T10:04:12.617Z,-0.42
2019-01-25T10:05:13.192Z,-0.44
2019-01-25T10:06:13.771Z,-0.39
2019-01-25T10:07:14.415Z,-0.47
2019-01-25T10:08:15.000Z,-0.44
2019-01-25T10:09:15.585Z,-0.33
2019-01-25T10:10:16.172Z,-0.30
2019-01-25T10:11:16.749Z,-0.23
2019-01-25T10:12:17.323Z,-0.30
2019-01-25T10:13:17.902Z,-0.22
2019-01-25T10:14:18.472Z,-0.26
2019-01-25T10:15:19.051Z,-0.26
2019-01-25T10:16:19.809Z,-0.18
2019-01-25T10:17:20.381Z,-0.22
2019-01-25T10:18:24.831Z,-0.22
2019-01-25T10:19:21.540Z,-0.13
2019-01-25T10:20:22.191Z,-0.18
2019-01-25T10:21:22.766Z,-0.13
2019-01-25T10:22:23.347Z,-0.12
2019-01-25T10:23:23.929Z,-0.13
2019-01-25T10:24:24.509Z,-0.08
2019-01-25T10:25:25.083Z,-0.09
2019-01-25T10:26:25.661Z,-0.11
2019-01-25T10:27:26.246Z,0.00
2019-01-25T10:28:26.823Z,-0.08
2019-01-25T10:29:27.401Z,-0.04
2019-01-25T10:30:27.980Z,0.03
2019-01-25T10:31:28.562Z,0.02
2019-01-25T10:32:29.140Z,0.12
2019-01-25T10:33:29.723Z,0.09
2019-01-25T10:34:30.367Z,0.06
2019-01-25T10:35:31.660Z,0.15
2019-01-25T10:36:31.524Z,0.15
2019-01-25T10:37:32.108Z,0.15
2019-01-25T10:38:32.688Z,0.10
2019-01-25T10:39:33.281Z,0.21
2019-01-25T10:40:33.891Z,0.18
2019-01-25T10:41:34.477Z,0.18
2019-01-25T10:42:35.051Z,0.16
2019-01-25T10:43:35.635Z,0.18
2019-01-25T10:44:36.214Z,0.28
2019-01-25T10:45:36.906Z,0.23
2019-01-25T10:46:37.497Z,0.27
2019-01-25T10:47:38.069Z,0.33
2019-01-25T10:48:38.703Z,0.24
2019-01-25T10:49:39.286Z,0.25
2019-01-25T10:50:39.875Z,0.23
2019-01-25T10:51:40.448Z,0.39
2019-01-25T10:52:41.048Z,0.30
2019-01-25T10:53:41.634Z,0.33
2019-01-25T10:54:42.207Z,0.33
2019-01-25T10:55:42.791Z,0.33
2019-01-25T10:56:43.478Z,0.23
2019-01-25T10:57:44.062Z,0.18
2019-01-25T10:58:44.637Z,0.15
2019-01-25T10:59:45.310Z,0.12
2019-01-25T11:00:45.890Z,0.15
2019-01-25T11:01:46.472Z,0.16
2019-01-25T11:02:47.070Z,0.02
2019-01-25T11:03:47.653Z,0.02
2019-01-25T11:04:48.240Z,-0.01
2019-01-25T11:05:48.828Z,-0.05
2019-01-25T11:06:49.416Z,0.02
2019-01-25T11:07:50.076Z,0.03
2019-01-25T11:08:50.661Z,-0.13
2019-01-25T11:09:51.264Z,-0.09
2019-01-25T11:10:51.853Z,-0.05
2019-01-25T11:11:52.504Z,-0.05
2019-01-25T11:13:00.520Z,-0.11
2019-01-25T11:13:53.665Z,-0.12
2019-01-25T11:14:54.311Z,-0.12
2019-01-25T11:15:54.882Z,-0.13
2019-01-25T11:16:55.470Z,-0.15
2019-01-25T11:17:56.071Z,-0.11
2019-01-25T11:18:56.714Z,-0.09
2019-01-25T11:19:57.300Z,-0.09
2019-01-25T11:20:57.954Z,-0.06
2019-01-25T11:21:58.533Z,-0.08
2019-01-25T11:22:59.194Z,-0.11
2019-01-25T11:23:59.785Z,-0.09
2019-01-25T11:25:00.445Z,-0.12
2019-01-25T11:26:01.021Z,-0.12
2019-01-25T11:27:01.622Z,-0.11
2019-01-25T11:28:02.201Z,-0.08
2019-01-25T11:29:02.785Z,0.00
2019-01-25T11:30:03.372Z,0.00
2019-01-25T11:31:03.944Z,0.02
2019-01-25T11:32:04.524Z,0.02
2019-01-25T11:33:06.119Z,0.02
2019-01-25T11:34:06.795Z,0.00
2019-01-25T11:35:07.350Z,0.12
2019-01-25T11:36:07.920Z,0.09
2019-01-25T11:37:08.583Z,0.12
2019-01-25T11:38:09.162Z,0.07
2019-01-25T11:39:09.831Z,0.00
2019-01-25T11:40:10.406Z,0.05
2019-01-25T11:41:11.075Z,0.06
2019-01-25T11:42:11.646Z,0.05
2019-01-25T11:43:12.309Z,0.10
2019-01-25T11:44:12.896Z,-0.04
2019-01-25T11:45:13.555Z,0.00
2019-01-25T11:46:14.134Z,0.03
2019-01-25T11:47:14.801Z,-0.05
2019-01-25T11:48:15.432Z,-0.01
2019-01-25T11:49:16.043Z,-0.05
2019-01-25T11:50:16.622Z,-0.08
2019-01-25T11:51:17.285Z,-0.16
2019-01-25T11:52:17.867Z,-0.15
2019-01-25T11:53:18.525Z,-0.11
2019-01-25T11:54:19.103Z,-0.15
2019-01-25T11:55:19.690Z,-0.13
2019-01-25T11:56:20.266Z,-0.12
2019-01-25T11:57:20.976Z,-0.18
2019-01-25T11:58:21.496Z,-0.12
2019-01-25T11:59:22.145Z,-0.13
2019-01-25T12:00:22.728Z,-0.15
2019-01-25T12:01:23.388Z,-0.18
2019-01-25T12:02:23.991Z,-0.15
2019-01-25T12:03:24.629Z,-0.15
2019-01-25T12:04:25.215Z,-0.16
2019-01-25T12:05:25.874Z,-0.06
2019-01-25T12:06:26.460Z,-0.09
2019-01-25T12:07:27.116Z,-0.05
2019-01-25T12:08:27.698Z,0.00
2019-01-25T12:09:28.368Z,0.03
2019-01-25T12:10:28.942Z,-0.04
2019-01-25T12:11:29.601Z,-0.04
2019-01-25T12:12:30.181Z,0.10
2019-01-25T12:13:30.789Z,-0.05
2019-01-25T12:14:31.373Z,0.10
2019-01-25T12:15:32.032Z,0.15
2019-01-25T12:16:32.616Z,0.12
2019-01-25T12:17:33.279Z,0.13
2019-01-25T12:18:33.859Z,0.20
2019-01-25T12:19:34.516Z,0.16
2019-01-25T12:20:35.095Z,0.20
2019-01-25T12:21:35.763Z,0.16
2019-01-25T12:22:36.401Z,0.33
2019-01-25T12:23:36.957Z,0.27
2019-01-25T12:24:37.507Z,0.38
2019-01-25T12:25:38.085Z,0.31
2019-01-25T12:26:38.671Z,0.25
2019-01-25T12:27:39.244Z,0.25
2019-01-25T12:28:39.867Z,0.24
2019-01-25T12:29:40.440Z,0.34
2019-01-25T12:30:41.103Z,0.25
2019-01-25T12:31:41.687Z,0.36
2019-01-25T12:32:42.277Z,0.36
2019-01-25T12:33:42.854Z,0.39
2019-01-25T12:34:43.435Z,0.36
2019-01-25T12:35:44.015Z,0.39
2019-01-25T12:36:44.612Z,0.39
2019-01-25T12:37:45.186Z,0.43
2019-01-25T12:38:45.774Z,0.33
2019-01-25T12:39:46.347Z,0.38
2019-01-25T12:40:46.932Z,0.27
2019-01-25T12:41:47.517Z,0.30
2019-01-25T12:42:48.096Z,0.31
2019-01-25T12:43:48.680Z,0.36
2019-01-25T12:44:49.279Z,0.25
2019-01-25T12:45:50.314Z,0.34
2019-01-25T12:46:50.426Z,0.30
2019-01-25T12:47:51.009Z,0.34
2019-01-25T12:48:51.592Z,0.31
2019-01-25T12:49:52.169Z,0.27
2019-01-25T12:50:52.773Z,0.36
2019-01-25T12:51:53.349Z,0.36
2019-01-25T12:52:53.964Z,0.38
2019-01-25T12:53:54.513Z,0.30
2019-01-25T12:54:55.098Z,0.38
2019-01-25T12:55:55.670Z,0.41
2019-01-25T12:56:56.261Z,0.42
2019-01-25T12:57:56.842Z,0.38
2019-01-25T12:58:57.429Z,0.41
2019-01-25T12:59:58.012Z,0.38
2019-01-25T13:00:58.591Z,0.39
2019-01-25T13:01:59.175Z,0.42
2019-01-25T13:02:59.757Z,0.41
2019-01-25T13:04:00.334Z,0.43
2019-01-25T13:05:00.932Z,0.52